Time;durP1;ratioP1;P1;durP2;ratioP2;P2;SDS_P1;SDS_P2;PMS_P1;PMS_P2;Temp;Humidity;BMP_temperature;BMP_pressure;BME280_temperature;BME280_humidity;BME280_pressure;Samples;Min_cycle;Max_cycle;Signal;HPM_P1;HPM_P2
2023/10/07 00:01:16;;;;;;;;;;;23.00;48.80;;;;;;5094242;28;19924;-61
2023/10/07 00:03:43;;;;;;;;;;;23.00;48.90;;;;;;5094603;28;20010;-61
2023/10/07 00:06:11;;;;;;;;;;;23.00;48.80;;;;;;5094142;28;19990;-61
2023/10/07 00:08:39;;;;;;;;;;;23.00;48.80;;;;;;5093005;28;19977;-61
2023/10/07 00:11:11;;;;;;;;;;;23.00;48.80;;;;;;5093787;28;20361;-61
2023/10/07 00:13:42;;;;;;;;;;;23.00;48.80;;;;;;5094216;28;20023;-61
2023/10/07 00:16:17;;;;;;;;;;;23.00;48.80;;;;;;5093885;28;19924;-61
2023/10/07 00:18:45;;;;;;;;;;;22.90;48.80;;;;;;5094003;28;19969;-61
2023/10/07 00:21:23;;;;;;;;;;;23.00;48.80;;;;;;5094029;28;19925;-61
2023/10/07 00:23:53;;;;;;;;;;;23.00;48.80;;;;;;5094172;28;19924;-61
2023/10/07 00:26:20;;;;;;;;;;;23.00;48.80;;;;;;5094293;28;19924;-62
2023/10/07 00:28:59;;;;;;;;;;;23.00;48.80;;;;;;5093793;28;20415;-61
2023/10/07 00:31:27;;;;;;;;;;;22.90;48.80;;;;;;5093576;28;20347;-61
2023/10/07 00:34:14;;;;;;;;;;;22.90;48.80;;;;;;5093848;28;19924;-61
2023/10/07 00:36:41;;;;;;;;;;;22.90;48.80;;;;;;5093701;28;19975;-61
2023/10/07 00:39:09;;;;;;;;;;;22.90;48.80;;;;;;5093797;28;20018;-61
2023/10/07 00:41:39;;;;;;;;;;;22.90;48.80;;;;;;5093775;28;19924;-61
2023/10/07 00:44:23;;;;;;;;;;;22.90;48.80;;;;;;5093853;28;20402;-61
2023/10/07 00:47:07;;;;;;;;;;;22.90;48.80;;;;;;5093806;28;20296;-61
2023/10/07 00:49:41;;;;;;;;;;;22.90;49.40;;;;;;5094303;28;19970;-61
2023/10/07 00:52:14;;;;;;;;;;;22.90;48.80;;;;;;5093448;28;19931;-61
2023/10/07 00:54:50;;;;;;;;;;;22.90;48.80;;;;;;5093820;28;19924;-61
2023/10/07 00:57:26;;;;;;;;;;;22.90;48.80;;;;;;5093619;28;20023;-61
2023/10/07 00:59:56;;;;;;;;;;;22.90;48.90;;;;;;5093502;28;20019;-61
2023/10/07 01:02:30;;;;;;;;;;;22.90;48.90;;;;;;5093764;28;19924;-61
2023/10/07 01:05:13;;;;;;;;;;;22.90;48.90;;;;;;5093646;28;20387;-61
2023/10/07 01:07:53;;;;;;;;;;;22.90;48.90;;;;;;5093461;28;20014;-61
2023/10/07 01:10:26;;;;;;;;;;;22.90;48.90;;;;;;5094241;28;19930;-61
2023/10/07 01:12:56;;;;;;;;;;;22.80;49.40;;;;;;5093591;28;20323;-61
2023/10/07 01:15:23;;;;;;;;;;;22.90;48.80;;;;;;5093295;28;19981;-61
2023/10/07 01:17:56;;;;;;;;;;;22.90;48.90;;;;;;5093200;28;19924;-61
2023/10/07 01:20:58;;;;;;;;;;;22.90;48.90;;;;;;5093205;28;19924;-61
2023/10/07 01:23:16;;;;;;;;;;;22.90;49.40;;;;;;5093476;28;19924;-61
2023/10/07 01:25:44;;;;;;;;;;;22.90;48.80;;;;;;5093505;28;19924;-61
2023/10/07 01:28:14;;;;;;;;;;;22.90;48.80;;;;;;5096992;28;19924;-61
2023/10/07 01:31:07;;;;;;;;;;;22.90;48.80;;;;;;5097582;28;20253;-61
2023/10/07 01:33:39;;;;;;;;;;;22.90;48.80;;;;;;5096645;28;19977;-63
2023/10/07 01:36:10;;;;;;;;;;;22.90;48.80;;;;;;5095977;28;19931;-61
2023/10/07 01:38:44;;;;;;;;;;;22.90;48.80;;;;;;5096956;28;19975;-61
2023/10/07 01:41:18;;;;;;;;;;;22.90;48.80;;;;;;5096128;28;20326;-61
2023/10/07 01:46:34;;;;;;;;;;;22.90;48.80;;;;;;5097142;28;19934;-61
2023/10/07 01:49:11;;;;;;;;;;;22.80;48.80;;;;;;5097066;28;19924;-61
2023/10/07 01:51:43;;;;;;;;;;;22.90;48.80;;;;;;5096579;28;19924;-61
2023/10/07 01:54:14;;;;;;;;;;;22.90;48.80;;;;;;5097017;28;19924;-61
2023/10/07 01:56:41;;;;;;;;;;;22.90;48.90;;;;;;5096526;28;19975;-61
2023/10/07 01:59:17;;;;;;;;;;;22.90;48.90;;;;;;5096801;28;20037;-61
2023/10/07 02:02:06;;;;;;;;;;;22.80;48.80;;;;;;5096743;28;19960;-61
2023/10/07 02:04:33;;;;;;;;;;;22.80;48.80;;;;;;5096677;28;20380;-61
2023/10/07 02:07:00;;;;;;;;;;;22.80;48.80;;;;;;5096386;28;20300;-61
2023/10/07 02:09:27;;;;;;;;;;;22.80;49.30;;;;;;5096879;28;19924;-61
2023/10/07 02:11:56;;;;;;;;;;;22.80;48.80;;;;;;5096098;28;20388;-61
2023/10/07 02:14:24;;;;;;;;;;;22.80;48.80;;;;;;5096558;28;19928;-61
2023/10/07 02:16:52;;;;;;;;;;;22.80;48.80;;;;;;5096108;28;19974;-61
2023/10/07 02:19:29;;;;;;;;;;;22.80;48.80;;;;;;5096675;28;19924;-61
2023/10/07 02:21:59;;;;;;;;;;;22.80;48.80;;;;;;5095137;28;19924;-61
2023/10/07 02:24:30;;;;;;;;;;;22.80;48.80;;;;;;5096653;28;20022;-61
2023/10/07 02:26:59;;;;;;;;;;;22.80;48.90;;;;;;5095908;28;19928;-61
2023/10/07 02:29:27;;;;;;;;;;;22.80;48.90;;;;;;5096216;28;19924;-61
2023/10/07 02:32:05;;;;;;;;;;;22.80;48.80;;;;;;5096134;28;20388;-61
2023/10/07 02:34:33;;;;;;;;;;;22.80;48.80;;;;;;5095955;28;19924;-61
2023/10/07 02:37:11;;;;;;;;;;;22.80;48.80;;;;;;5095508;28;19939;-61
2023/10/07 02:39:49;;;;;;;;;;;22.80;48.80;;;;;;5094884;28;19924;-61
2023/10/07 02:42:21;;;;;;;;;;;22.80;48.80;;;;;;5096354;28;20291;-61
2023/10/07 02:44:51;;;;;;;;;;;22.80;48.80;;;;;;5096020;28;20403;-61
2023/10/07 02:47:18;;;;;;;;;;;22.80;48.80;;;;;;5095890;28;19976;-61
2023/10/07 02:49:49;;;;;;;;;;;22.80;48.80;;;;;;5095889;28;19924;-61
2023/10/07 02:52:19;;;;;;;;;;;22.80;48.80;;;;;;5096002;28;19924;-61
2023/10/07 02:55:11;;;;;;;;;;;22.80;48.80;;;;;;5095431;28;19963;-61
2023/10/07 02:57:39;;;;;;;;;;;22.80;48.80;;;;;;5095357;28;19981;-61
2023/10/07 03:00:29;;;;;;;;;;;22.80;48.80;;;;;;5095588;28;19924;-61
2023/10/07 03:03:10;;;;;;;;;;;22.80;48.80;;;;;;5095728;28;19928;-61
2023/10/07 03:05:57;;;;;;;;;;;22.80;48.80;;;;;;5095240;28;19978;-61
2023/10/07 03:08:40;;;;;;;;;;;22.80;48.80;;;;;;5095376;28;19924;-62
2023/10/07 03:11:24;;;;;;;;;;;22.80;48.80;;;;;;5095329;28;19928;-61
2023/10/07 03:13:56;;;;;;;;;;;22.80;48.80;;;;;;5095505;28;19970;-61
2023/10/07 03:16:27;;;;;;;;;;;22.80;48.80;;;;;;5094929;28;19927;-61
2023/10/07 03:21:55;;;;;;;;;;;22.80;48.80;;;;;;5095485;28;19928;-61
2023/10/07 03:24:38;;;;;;;;;;;22.80;48.80;;;;;;5095126;28;20007;-61
2023/10/07 03:27:11;;;;;;;;;;;22.80;48.80;;;;;;5095085;28;19924;-61
2023/10/07 03:29:39;;;;;;;;;;;22.80;48.80;;;;;;5094944;28;19973;-61
2023/10/07 03:32:13;;;;;;;;;;;22.80;48.80;;;;;;5094788;28;19924;-61
2023/10/07 03:34:45;;;;;;;;;;;22.80;48.80;;;;;;5094786;28;20436;-61
2023/10/07 03:37:14;;;;;;;;;;;22.80;48.80;;;;;;5094762;28;20284;-61
2023/10/07 03:42:28;;;;;;;;;;;22.80;48.80;;;;;;5095056;28;20343;-61
2023/10/07 03:44:55;;;;;;;;;;;22.80;48.80;;;;;;5093310;28;20380;-61
2023/10/07 03:47:22;;;;;;;;;;;22.80;48.80;;;;;;5094729;28;19967;-61
2023/10/07 03:49:52;;;;;;;;;;;22.80;48.80;;;;;;5094235;28;19924;-61
2023/10/07 03:52:20;;;;;;;;;;;22.80;48.80;;;;;;5094638;28;19938;-61
2023/10/07 03:54:48;;;;;;;;;;;22.80;48.80;;;;;;5094802;28;19978;-61
2023/10/07 03:57:18;;;;;;;;;;;22.80;48.80;;;;;;5094270;28;19931;-61
2023/10/07 03:59:46;;;;;;;;;;;22.70;48.80;;;;;;5094597;28;20360;-61
2023/10/07 04:02:34;;;;;;;;;;;22.80;48.80;;;;;;5094587;28;20296;-61
2023/10/07 04:05:09;;;;;;;;;;;22.70;48.80;;;;;;5094523;28;19928;-61
2023/10/07 04:07:37;;;;;;;;;;;22.80;48.80;;;;;;5094158;28;19969;-61
2023/10/07 04:10:31;;;;;;;;;;;22.80;48.80;;;;;;5094423;28;19930;-61
2023/10/07 04:12:56;;;;;;;;;;;22.80;48.80;;;;;;5093909;28;19963;-61
2023/10/07 04:15:30;;;;;;;;;;;22.70;48.70;;;;;;5094181;28;20347;-61
2023/10/07 04:17:57;;;;;;;;;;;22.80;48.70;;;;;;5094276;28;19984;-61
2023/10/07 04:20:32;;;;;;;;;;;22.70;48.70;;;;;;5092830;28;20391;-61
2023/10/07 04:23:02;;;;;;;;;;;22.70;48.70;;;;;;5094096;28;20307;-62
2023/10/07 04:25:31;;;;;;;;;;;22.80;48.70;;;;;;5094162;28;20296;-61
2023/10/07 04:27:58;;;;;;;;;;;22.70;48.70;;;;;;5094191;28;19928;-62
2023/10/07 04:30:38;;;;;;;;;;;22.80;48.70;;;;;;5093843;28;19985;-61
2023/10/07 04:33:08;;;;;;;;;;;22.70;48.70;;;;;;5093967;28;19971;-61
2023/10/07 04:35:37;;;;;;;;;;;22.70;48.70;;;;;;5092384;28;19928;-61
2023/10/07 04:43:47;;;;;;;;;;;22.60;48.50;;;;;;5092314;28;19928;-61
2023/10/07 04:46:24;;;;;;;;;;;22.60;48.60;;;;;;5093401;28;20402;-61
2023/10/07 04:48:55;;;;;;;;;;;22.50;48.50;;;;;;5093917;28;19924;-61
2023/10/07 04:51:46;;;;;;;;;;;22.40;48.50;;;;;;5093502;28;19924;-61
2023/10/07 04:54:23;;;;;;;;;;;22.40;48.60;;;;;;5093865;28;20291;-61
2023/10/07 04:57:00;;;;;;;;;;;22.40;48.60;;;;;;5093490;28;19970;-61
2023/10/07 04:59:28;;;;;;;;;;;22.30;48.70;;;;;;5093651;28;19928;-62
2023/10/07 05:02:01;;;;;;;;;;;22.30;48.70;;;;;;5095026;28;19924;-61
2023/10/07 05:04:29;;;;;;;;;;;22.20;48.60;;;;;;5098139;28;19924;-61
2023/10/07 05:06:56;;;;;;;;;;;22.20;48.50;;;;;;5097801;28;20368;-61
2023/10/07 05:09:26;;;;;;;;;;;22.20;48.50;;;;;;5097847;28;19928;-61
2023/10/07 05:11:53;;;;;;;;;;;22.30;48.60;;;;;;5097189;28;19924;-61
2023/10/07 05:14:24;;;;;;;;;;;22.20;48.50;;;;;;5097988;28;19993;-61
2023/10/07 05:16:52;;;;;;;;;;;22.20;48.40;;;;;;5097361;28;19924;-61
2023/10/07 05:19:21;;;;;;;;;;;22.20;48.40;;;;;;5097833;28;19924;-61
2023/10/07 05:21:59;;;;;;;;;;;22.20;48.30;;;;;;5097781;28;20269;-61
2023/10/07 05:24:28;;;;;;;;;;;22.20;48.30;;;;;;5097332;28;19924;-61
2023/10/07 05:26:57;;;;;;;;;;;22.20;48.20;;;;;;5097250;28;19924;-61
2023/10/07 05:29:24;;;;;;;;;;;22.20;48.10;;;;;;5097411;28;19924;-61
2023/10/07 05:31:51;;;;;;;;;;;22.20;48.10;;;;;;5096800;28;20369;-61
2023/10/07 05:34:18;;;;;;;;;;;22.30;48.20;;;;;;5096898;28;20380;-61
2023/10/07 05:36:46;;;;;;;;;;;22.20;48.10;;;;;;5097075;28;19931;-60
2023/10/07 05:39:15;;;;;;;;;;;22.20;48.00;;;;;;5097633;28;19928;-61
2023/10/07 05:41:42;;;;;;;;;;;22.20;48.00;;;;;;5096975;28;19931;-61
2023/10/07 05:44:09;;;;;;;;;;;22.30;48.00;;;;;;5097108;28;20360;-61
2023/10/07 05:46:37;;;;;;;;;;;22.30;48.00;;;;;;5097209;28;19924;-61
2023/10/07 05:49:06;;;;;;;;;;;22.30;47.90;;;;;;5096812;28;20023;-60
2023/10/07 05:51:36;;;;;;;;;;;22.30;47.90;;;;;;5096867;28;19928;-61
2023/10/07 05:54:05;;;;;;;;;;;22.30;47.90;;;;;;5095639;28;20436;-61
2023/10/07 05:56:32;;;;;;;;;;;22.20;47.80;;;;;;5096431;28;20015;-61
2023/10/07 05:59:01;;;;;;;;;;;22.20;47.80;;;;;;5096757;28;19959;-61
2023/10/07 06:01:33;;;;;;;;;;;22.10;48.10;;;;;;5096635;28;19932;-62
2023/10/07 06:04:00;;;;;;;;;;;21.90;48.30;;;;;;5096627;28;19947;-61
2023/10/07 06:06:30;;;;;;;;;;;21.70;48.70;;;;;;5096350;28;19930;-62
2023/10/07 06:09:00;;;;;;;;;;;21.50;49.20;;;;;;5096530;28;19971;-62
2023/10/07 06:11:32;;;;;;;;;;;21.20;49.00;;;;;;5096804;28;19924;-62
2023/10/07 06:13:59;;;;;;;;;;;21.00;48.90;;;;;;5096351;28;20023;-63
2023/10/07 06:16:26;;;;;;;;;;;20.60;48.80;;;;;;5096232;28;20419;-62
2023/10/07 06:18:54;;;;;;;;;;;20.40;48.30;;;;;;5095229;28;20441;-61
2023/10/07 06:21:27;;;;;;;;;;;20.10;49.70;;;;;;5096614;28;20376;-61
2023/10/07 06:24:06;;;;;;;;;;;19.80;50.20;;;;;;5096128;28;19951;-61
2023/10/07 06:26:36;;;;;;;;;;;19.60;49.00;;;;;;5096059;28;20381;-61
2023/10/07 06:29:07;;;;;;;;;;;19.30;50.10;;;;;;5096163;28;19927;-61
2023/10/07 06:31:35;;;;;;;;;;;19.20;50.90;;;;;;5096198;28;20314;-61
2023/10/07 06:34:12;;;;;;;;;;;19.00;50.10;;;;;;5096136;28;19963;-61
2023/10/07 06:36:41;;;;;;;;;;;18.80;50.20;;;;;;5095943;28;19938;-61
2023/10/07 06:39:08;;;;;;;;;;;18.70;51.40;;;;;;5095079;28;19969;-61
2023/10/07 06:41:35;;;;;;;;;;;18.60;50.70;;;;;;5095793;28;19964;-61
2023/10/07 06:44:03;;;;;;;;;;;18.50;50.50;;;;;;5096325;28;19928;-61
2023/10/07 06:46:45;;;;;;;;;;;18.40;51.90;;;;;;5095993;28;19977;-62
2023/10/07 06:49:19;;;;;;;;;;;18.30;51.80;;;;;;5095753;28;19924;-61
2023/10/07 06:51:51;;;;;;;;;;;18.20;51.30;;;;;;5094290;28;19924;-61
2023/10/07 06:54:20;;;;;;;;;;;18.20;50.90;;;;;;5095718;28;20348;-61
2023/10/07 06:56:50;;;;;;;;;;;18.10;51.90;;;;;;5095727;28;20007;-61
2023/10/07 06:59:18;;;;;;;;;;;18.10;51.80;;;;;;5094735;28;19924;-61
2023/10/07 07:04:19;;;;;;;;;;;18.00;52.00;;;;;;5095524;28;19924;-61
2023/10/07 07:06:57;;;;;;;;;;;18.00;51.50;;;;;;5095547;28;19924;-61
2023/10/07 07:12:16;;;;;;;;;;;17.90;52.40;;;;;;5095308;28;19931;-61
2023/10/07 07:14:50;;;;;;;;;;;17.90;52.30;;;;;;5095625;28;20232;-61
2023/10/07 07:17:35;;;;;;;;;;;17.90;51.50;;;;;;5094913;28;20295;-61
2023/10/07 07:22:51;;;;;;;;;;;17.80;52.00;;;;;;5094610;28;19981;-61
2023/10/07 07:25:36;;;;;;;;;;;17.80;52.60;;;;;;5084538;28;19931;-61
2023/10/07 07:28:04;;;;;;;;;;;17.70;52.00;;;;;;5077421;28;19960;-60
2023/10/07 07:30:31;;;;;;;;;;;17.70;51.60;;;;;;5080453;28;19954;-61
2023/10/07 07:33:00;;;;;;;;;;;17.70;53.00;;;;;;5077994;28;19964;-61
2023/10/07 07:35:43;;;;;;;;;;;17.70;52.70;;;;;;5090984;28;19924;-62
2023/10/07 07:38:17;;;;;;;;;;;17.60;53.00;;;;;;5094736;28;19924;-62
2023/10/07 07:40:52;;;;;;;;;;;17.70;53.10;;;;;;5094749;28;19924;-61
2023/10/07 07:43:19;;;;;;;;;;;17.60;53.10;;;;;;5094882;28;20063;-61
2023/10/07 07:45:47;;;;;;;;;;;17.70;53.50;;;;;;5093415;28;19924;-61
2023/10/07 07:48:16;;;;;;;;;;;17.60;53.30;;;;;;5094722;28;19931;-61
2023/10/07 07:50:43;;;;;;;;;;;17.60;52.80;;;;;;5094376;28;20430;-61
2023/10/07 07:53:12;;;;;;;;;;;17.70;59.20;;;;;;5093794;28;20377;-61
2023/10/07 07:55:43;;;;;;;;;;;18.10;59.60;;;;;;5094874;28;19956;-61
2023/10/07 07:58:11;;;;;;;;;;;18.60;58.70;;;;;;5094687;28;19977;-61
2023/10/07 08:00:45;;;;;;;;;;;19.10;57.40;;;;;;5094269;28;20369;-61
2023/10/07 08:03:12;;;;;;;;;;;19.50;56.30;;;;;;5094409;28;19959;-61
2023/10/07 08:05:42;;;;;;;;;;;20.00;55.30;;;;;;5094559;28;19928;-61
2023/10/07 08:08:24;;;;;;;;;;;20.30;54.40;;;;;;5094196;28;20497;-61
2023/10/07 08:10:54;;;;;;;;;;;20.60;53.60;;;;;;5094493;28;19974;-61
2023/10/07 08:13:23;;;;;;;;;;;20.90;52.90;;;;;;5094099;28;19924;-61
2023/10/07 08:15:51;;;;;;;;;;;21.10;52.40;;;;;;5094361;28;19955;-61
2023/10/07 08:18:22;;;;;;;;;;;21.30;51.90;;;;;;5094177;28;19967;-61
2023/10/07 08:20:56;;;;;;;;;;;21.50;51.60;;;;;;5092867;28;19928;-61
2023/10/07 08:23:28;;;;;;;;;;;21.60;51.00;;;;;;5094347;28;20351;-61
2023/10/07 08:26:08;;;;;;;;;;;21.70;50.70;;;;;;5094257;28;20027;-61
2023/10/07 08:28:44;;;;;;;;;;;21.90;50.50;;;;;;5094075;28;19946;-63
2023/10/07 08:31:17;;;;;;;;;;;22.00;50.40;;;;;;5092889;28;19947;-61
2023/10/07 08:33:53;;;;;;;;;;;22.10;49.90;;;;;;5094169;28;20359;-61
2023/10/07 08:36:29;;;;;;;;;;;22.20;49.70;;;;;;5093944;28;19985;-61
2023/10/07 08:39:00;;;;;;;;;;;22.30;49.60;;;;;;5094172;28;19924;-61
2023/10/07 08:41:31;;;;;;;;;;;22.40;49.40;;;;;;5094393;28;19924;-61
2023/10/07 08:44:15;;;;;;;;;;;22.50;49.20;;;;;;5093708;28;19924;-61
2023/10/07 08:46:48;;;;;;;;;;;22.50;49.00;;;;;;5093759;28;19931;-61
2023/10/07 08:49:16;;;;;;;;;;;22.60;48.80;;;;;;5091883;28;19924;-61
2023/10/07 08:51:44;;;;;;;;;;;22.70;48.70;;;;;;5080867;28;19924;-61
2023/10/07 08:54:17;;;;;;;;;;;22.70;48.40;;;;;;5093439;28;20336;-61
2023/10/07 08:56:54;;;;;;;;;;;22.80;48.30;;;;;;5080475;28;19947;-61
2023/10/07 08:59:22;;;;;;;;;;;22.90;48.20;;;;;;5092536;28;19969;-61
2023/10/07 09:01:57;;;;;;;;;;;22.90;48.00;;;;;;5087567;28;19928;-61
2023/10/07 09:04:25;;;;;;;;;;;23.00;47.80;;;;;;5093409;28;19924;-61
2023/10/07 09:06:52;;;;;;;;;;;23.00;47.70;;;;;;5093297;28;20442;-61
2023/10/07 09:09:37;;;;;;;;;;;23.10;47.60;;;;;;5093975;28;19944;-61
2023/10/07 09:12:11;;;;;;;;;;;23.10;47.50;;;;;;5093392;28;19971;-61
2023/10/07 09:14:46;;;;;;;;;;;23.20;48.00;;;;;;5093153;28;19967;-61
2023/10/07 09:17:13;;;;;;;;;;;23.20;47.40;;;;;;5093417;28;20430;-61
2023/10/07 09:19:43;;;;;;;;;;;23.30;47.20;;;;;;5093672;28;20381;-61
2023/10/07 09:22:10;;;;;;;;;;;23.30;47.10;;;;;;5093583;28;19924;-61
2023/10/07 09:24:44;;;;;;;;;;;23.30;47.10;;;;;;5093438;28;20434;-61
2023/10/07 09:27:13;;;;;;;;;;;23.40;46.90;;;;;;5093260;28;20019;-61
2023/10/07 09:29:44;;;;;;;;;;;23.40;46.90;;;;;;5093201;28;20311;-62
2023/10/07 09:32:18;;;;;;;;;;;23.50;46.90;;;;;;5093453;28;20333;-60
2023/10/07 09:34:47;;;;;;;;;;;23.50;46.80;;;;;;5093434;28;20232;-62
2023/10/07 09:37:23;;;;;;;;;;;23.50;46.70;;;;;;5093144;28;20021;-61
2023/10/07 09:40:19;;;;;;;;;;;23.60;46.70;;;;;;5093095;28;20384;-62
2023/10/07 09:42:37;;;;;;;;;;;23.60;46.60;;;;;;5092864;28;20364;-61
2023/10/07 09:45:17;;;;;;;;;;;23.60;46.40;;;;;;5093260;28;20231;-61
2023/10/07 09:47:44;;;;;;;;;;;23.70;53.70;;;;;;5093849;28;19932;-61
2023/10/07 09:50:28;;;;;;;;;;;23.60;57.50;;;;;;5096986;28;20331;-61
2023/10/07 09:53:14;;;;;;;;;;;23.30;43.80;;;;;;5096705;28;19924;-62
2023/10/07 09:55:57;;;;;;;;;;;22.80;43.70;;;;;;5096978;28;19924;-61
2023/10/07 09:58:41;;;;;;;;;;;22.30;45.00;;;;;;5097096;28;19959;-61
2023/10/07 10:01:37;;;;;;;;;;;21.90;45.60;;;;;;5096912;28;20296;-62
2023/10/07 10:04:12;;;;;;;;;;;21.50;46.60;;;;;;5097168;28;20257;-62
2023/10/07 10:07:04;;;;;;;;;;;21.10;47.10;;;;;;5096989;28;20011;-61
2023/10/07 10:09:45;;;;;;;;;;;20.80;47.10;;;;;;5096314;28;19959;-62
2023/10/07 10:12:18;;;;;;;;;;;20.50;48.30;;;;;;5096279;28;19924;-62
2023/10/07 10:17:48;;;;;;;;;;;20.00;49.60;;;;;;5096511;28;19973;-62
2023/10/07 10:20:18;;;;;;;;;;;19.80;49.90;;;;;;5096369;28;19966;-61
2023/10/07 10:22:51;;;;;;;;;;;19.60;51.10;;;;;;5096449;28;19924;-61
2023/10/07 10:25:31;;;;;;;;;;;19.50;50.70;;;;;;5096196;28;20380;-62
2023/10/07 10:28:01;;;;;;;;;;;19.40;50.80;;;;;;5096164;28;19959;-62
2023/10/07 10:30:32;;;;;;;;;;;19.20;50.30;;;;;;5096345;28;19924;-62
2023/10/07 10:33:00;;;;;;;;;;;19.20;50.80;;;;;;5095829;28;19924;-62
2023/10/07 10:35:32;;;;;;;;;;;19.10;51.10;;;;;;5096433;28;19924;-61
2023/10/07 10:38:00;;;;;;;;;;;19.00;51.20;;;;;;5095879;28;19947;-62
2023/10/07 10:40:31;;;;;;;;;;;19.00;52.10;;;;;;5095906;28;20372;-62
2023/10/07 10:42:59;;;;;;;;;;;18.90;51.70;;;;;;5095257;28;19931;-63
2023/10/07 10:45:29;;;;;;;;;;;18.90;52.40;;;;;;5095995;28;19924;-62
2023/10/07 10:48:01;;;;;;;;;;;18.80;52.10;;;;;;5096064;28;19928;-62
2023/10/07 10:50:28;;;;;;;;;;;18.80;52.30;;;;;;5095681;28;20380;-62
2023/10/07 10:52:58;;;;;;;;;;;18.70;52.80;;;;;;5095243;28;19931;-62
2023/10/07 10:55:33;;;;;;;;;;;18.70;52.20;;;;;;5095980;28;20417;-62
2023/10/07 10:58:00;;;;;;;;;;;18.70;52.70;;;;;;5095769;28;19997;-64
2023/10/07 11:00:28;;;;;;;;;;;18.70;52.40;;;;;;5094383;28;19995;-62
2023/10/07 11:02:55;;;;;;;;;;;18.60;52.80;;;;;;5096182;28;19924;-62
2023/10/07 11:05:25;;;;;;;;;;;18.60;52.10;;;;;;5095914;28;19924;-62
2023/10/07 11:07:54;;;;;;;;;;;18.60;52.40;;;;;;5095315;28;20448;-62
2023/10/07 11:10:22;;;;;;;;;;;18.60;52.50;;;;;;5095277;28;19924;-62
2023/10/07 11:12:52;;;;;;;;;;;18.60;52.50;;;;;;5095511;28;19924;-62
2023/10/07 11:15:27;;;;;;;;;;;18.60;52.60;;;;;;5095419;28;19957;-62
2023/10/07 11:17:56;;;;;;;;;;;18.60;52.80;;;;;;5095320;28;19931;-62
2023/10/07 11:20:24;;;;;;;;;;;18.60;52.80;;;;;;5094896;28;20007;-62
2023/10/07 11:22:53;;;;;;;;;;;18.60;52.30;;;;;;5095523;28;19924;-62
2023/10/07 11:25:24;;;;;;;;;;;18.60;52.30;;;;;;5095038;28;19971;-62
2023/10/07 11:27:54;;;;;;;;;;;18.60;52.40;;;;;;5094386;28;20209;-62
2023/10/07 11:30:22;;;;;;;;;;;18.50;52.30;;;;;;5095189;28;19938;-62
2023/10/07 11:32:49;;;;;;;;;;;18.60;53.30;;;;;;5095292;28;19924;-62
2023/10/07 11:35:19;;;;;;;;;;;18.50;52.50;;;;;;5094327;28;19925;-62
2023/10/07 11:37:56;;;;;;;;;;;18.50;52.80;;;;;;5094770;28;20291;-62
2023/10/07 11:40:24;;;;;;;;;;;18.40;53.30;;;;;;5094725;28;19974;-62
2023/10/07 11:42:51;;;;;;;;;;;18.40;53.30;;;;;;5095109;28;19978;-62
2023/10/07 11:45:22;;;;;;;;;;;18.40;53.10;;;;;;5094591;28;20296;-62
2023/10/07 11:47:49;;;;;;;;;;;18.40;53.20;;;;;;5094228;28;19924;-62
2023/10/07 11:50:17;;;;;;;;;;;18.40;53.70;;;;;;5094119;28;19924;-62
2023/10/07 11:52:46;;;;;;;;;;;18.40;53.70;;;;;;5094013;28;19967;-62
2023/10/07 11:55:16;;;;;;;;;;;18.30;53.30;;;;;;5094563;28;19954;-62
2023/10/07 11:57:44;;;;;;;;;;;18.40;53.20;;;;;;5094787;28;19924;-62
2023/10/07 12:00:22;;;;;;;;;;;18.30;53.30;;;;;;5094637;28;19928;-63
2023/10/07 12:02:52;;;;;;;;;;;18.30;53.20;;;;;;5094842;28;19978;-62
2023/10/07 12:05:19;;;;;;;;;;;18.30;53.30;;;;;;5094126;28;19931;-62
2023/10/07 12:07:47;;;;;;;;;;;18.30;53.30;;;;;;5094614;28;19931;-62
2023/10/07 12:10:18;;;;;;;;;;;18.30;53.20;;;;;;5094211;28;20269;-63
2023/10/07 12:12:45;;;;;;;;;;;18.30;53.30;;;;;;5094005;28;19978;-62
2023/10/07 12:15:15;;;;;;;;;;;18.30;53.40;;;;;;5094402;28;19924;-64
2023/10/07 12:17:43;;;;;;;;;;;18.30;53.40;;;;;;5094310;28;19931;-62
2023/10/07 12:20:12;;;;;;;;;;;18.20;54.30;;;;;;5094423;28;20168;-62
2023/10/07 12:22:42;;;;;;;;;;;18.30;54.40;;;;;;5093954;28;20019;-62
2023/10/07 12:25:16;;;;;;;;;;;18.30;53.90;;;;;;5094330;28;19927;-62
2023/10/07 12:27:44;;;;;;;;;;;18.30;53.70;;;;;;5092862;28;19924;-62
2023/10/07 12:30:11;;;;;;;;;;;18.30;53.60;;;;;;5094125;28;19924;-62
2023/10/07 12:32:41;;;;;;;;;;;18.30;53.70;;;;;;5093832;28;19924;-62
2023/10/07 12:35:09;;;;;;;;;;;18.30;53.60;;;;;;5093356;28;19924;-62
2023/10/07 12:37:41;;;;;;;;;;;18.30;53.40;;;;;;5094118;28;19932;-62
2023/10/07 12:40:10;;;;;;;;;;;18.30;53.70;;;;;;5093772;28;19924;-62
2023/10/07 12:42:39;;;;;;;;;;;18.30;53.80;;;;;;5094137;28;19924;-62
2023/10/07 12:45:07;;;;;;;;;;;18.30;53.50;;;;;;5093271;28;19985;-62
2023/10/07 12:47:35;;;;;;;;;;;18.30;53.90;;;;;;5094049;28;20280;-62
2023/10/07 12:52:50;;;;;;;;;;;18.30;53.60;;;;;;5092877;28;19963;-62
2023/10/07 12:55:17;;;;;;;;;;;18.30;54.10;;;;;;5093594;28;19925;-62
2023/10/07 12:57:44;;;;;;;;;;;18.40;54.40;;;;;;5093626;28;19977;-62
2023/10/07 13:00:31;;;;;;;;;;;18.40;54.30;;;;;;5092286;28;19928;-62
2023/10/07 13:03:02;;;;;;;;;;;18.40;53.60;;;;;;5092877;28;19928;-60
2023/10/07 13:05:32;;;;;;;;;;;18.40;53.60;;;;;;5093818;28;19924;-60
2023/10/07 13:07:59;;;;;;;;;;;18.40;53.40;;;;;;5093556;28;19998;-60
2023/10/07 13:10:26;;;;;;;;;;;18.40;53.50;;;;;;5092273;28;19938;-60
2023/10/07 13:12:58;;;;;;;;;;;18.40;53.60;;;;;;5091999;28;19958;-60
2023/10/07 13:15:37;;;;;;;;;;;18.50;53.40;;;;;;5093615;28;20300;-60
2023/10/07 13:18:08;;;;;;;;;;;18.50;53.60;;;;;;5093419;28;19931;-59
2023/10/07 13:20:35;;;;;;;;;;;18.50;53.50;;;;;;5093377;28;19970;-60
2023/10/07 13:23:05;;;;;;;;;;;18.50;53.60;;;;;;5095138;28;19931;-60
2023/10/07 13:25:33;;;;;;;;;;;18.50;53.80;;;;;;5097295;28;19927;-59
2023/10/07 13:28:01;;;;;;;;;;;18.50;53.10;;;;;;5097738;28;20009;-60
2023/10/07 13:30:33;;;;;;;;;;;18.50;54.00;;;;;;5096512;28;20343;-60
2023/10/07 13:33:00;;;;;;;;;;;18.40;53.90;;;;;;5097464;28;20286;-60
2023/10/07 13:35:32;;;;;;;;;;;18.40;53.70;;;;;;5097185;28;19967;-63
2023/10/07 13:38:01;;;;;;;;;;;18.40;54.10;;;;;;5097253;28;19924;-62
2023/10/07 13:40:30;;;;;;;;;;;18.50;53.20;;;;;;5097131;28;20384;-60
2023/10/07 13:42:57;;;;;;;;;;;18.50;53.70;;;;;;5096112;28;19930;-60
2023/10/07 13:45:28;;;;;;;;;;;18.50;53.30;;;;;;5097465;28;19988;-59
2023/10/07 13:47:55;;;;;;;;;;;18.40;53.10;;;;;;5096755;28;20015;-60
2023/10/07 13:50:25;;;;;;;;;;;18.50;53.50;;;;;;5097240;28;19951;-60
2023/10/07 13:53:12;;;;;;;;;;;18.40;53.90;;;;;;5096671;28;20354;-62
2023/10/07 13:58:26;;;;;;;;;;;18.40;53.30;;;;;;5096788;28;20434;-60
2023/10/07 14:00:53;;;;;;;;;;;18.40;54.20;;;;;;5097000;28;19970;-61
2023/10/07 14:03:23;;;;;;;;;;;18.40;54.30;;;;;;5096479;28;19962;-61
2023/10/07 14:05:51;;;;;;;;;;;18.40;58.70;;;;;;5096949;28;19924;-61
2023/10/07 14:08:19;;;;;;;;;;;18.50;66.40;;;;;;5096934;28;19978;-61
2023/10/07 14:10:50;;;;;;;;;;;18.70;70.40;;;;;;5096507;28;19924;-61
2023/10/07 14:13:19;;;;;;;;;;;19.00;72.20;;;;;;5096101;28;20038;-61
2023/10/07 14:15:49;;;;;;;;;;;19.30;72.80;;;;;;5096692;28;19931;-61
2023/10/07 14:18:19;;;;;;;;;;;19.60;72.60;;;;;;5096635;28;20011;-61
2023/10/07 14:20:54;;;;;;;;;;;19.90;72.60;;;;;;5096441;28;19924;-61
2023/10/07 14:23:21;;;;;;;;;;;20.10;72.00;;;;;;5096397;28;20403;-61
2023/10/07 14:25:51;;;;;;;;;;;20.40;71.90;;;;;;5096363;28;19924;-62
2023/10/07 14:28:19;;;;;;;;;;;20.60;71.50;;;;;;5096224;28;20368;-61
2023/10/07 14:30:47;;;;;;;;;;;20.70;71.00;;;;;;5096430;28;19924;-61
2023/10/07 14:33:14;;;;;;;;;;;20.90;71.20;;;;;;5096307;28;19977;-61
2023/10/07 14:35:44;;;;;;;;;;;21.00;70.90;;;;;;5096417;28;19924;-61
2023/10/07 14:38:11;;;;;;;;;;;21.20;70.70;;;;;;5096310;28;20441;-62
2023/10/07 14:40:39;;;;;;;;;;;21.30;70.70;;;;;;5096411;28;19963;-62
2023/10/07 14:43:06;;;;;;;;;;;21.40;70.60;;;;;;5096009;28;19964;-61
2023/10/07 14:45:36;;;;;;;;;;;21.50;70.50;;;;;;5094691;28;20346;-61
2023/10/07 14:48:04;;;;;;;;;;;21.60;70.40;;;;;;5096283;28;19928;-61
2023/10/07 14:50:35;;;;;;;;;;;21.60;70.30;;;;;;5095414;28;20394;-61
2023/10/07 14:53:04;;;;;;;;;;;21.70;70.40;;;;;;5095763;28;20361;-61
2023/10/07 14:55:34;;;;;;;;;;;21.80;70.20;;;;;;5096064;28;20265;-61
2023/10/07 14:58:01;;;;;;;;;;;21.80;70.10;;;;;;5095850;28;19924;-61
2023/10/07 15:00:29;;;;;;;;;;;21.90;70.00;;;;;;5095658;28;19931;-61
2023/10/07 15:02:55;;;;;;;;;;;22.00;69.80;;;;;;5095615;28;19946;-61
2023/10/07 15:05:25;;;;;;;;;;;22.00;69.50;;;;;;5095789;28;20387;-61
2023/10/07 15:07:52;;;;;;;;;;;22.00;69.30;;;;;;5095880;28;19924;-61
2023/10/07 15:10:28;;;;;;;;;;;22.10;69.10;;;;;;5095435;28;19924;-61
2023/10/07 15:12:55;;;;;;;;;;;22.20;68.80;;;;;;5095572;28;20296;-61